Kuching International Airport
WBGG : now visible

Airfield :











YOU CAN JOIN US ON...

 
LOGIN :

Register | Disclaimer

   EN    FR    IT 

 









Legend :    VFR   Marginal VFR   IFR   Intensive IFR   Very Intensive IFR
Visi :
Ceiling :
>= 8 km
>= 3000ft
5 to 8 km
1000 to 3000 ft
1500m to 5 km
500 to 1000 ft
800 to 1500m
200 to 500 ft
< 800m
< 200 ft
Symbols :   Thunderstorms  Fog  Heavy snow  Heavy precipitations  Wind > 20 kt






- Airport Elevation : 89 ft
- IATA code : KCH


WBGG - Kuching International

CURRENT METAR :
  • 100030Z VRB02KT 9999 FEW007 SCT020 28/26 Q1013 NOSIG

EXPIRED METARs :
  • 100000Z 00000KT 9999 FEW007 SCT020 27/26 Q1012 NOSIG
  • 092330Z 00000KT 9999 FEW005 FEW015CB 26/25 Q1012 NOSIG
  • 092300Z 00000KT 9999 FEW002 FEW015CB SCT020 25/25 Q1011 NOSIG
  • 092230Z 00000KT 9999 FEW015CB SCT020 25/25 Q1011 NOSIG
  • 092200Z VRB02KT 9999 FEW015CB SCT020 25/25 Q1011 NOSIG

TAF TAF WBGG
Valid from the 10 at 00:00 until the 11 at 00:00 UTC


092300Z 1000/1100 VRB03KT 9999 SCT020
TEMPO 1003/1007 26007KT 3000 TSRA FEW015CB



MET'MAP, your aeronautical weather chart ! - Copyright ORBIFLY December 2007 - Disclaimer

ORBIFLY MET'MAP TEAM :

Programming & Development : Alexandra Zaïnal
Concept & original design : Baudouin d'Aumeries
Assistance for programming : Marc-Olivier Méhu
Technical & hardware support : Manuel Goepfert

Contact : metmap@orbifly.com




SOURCES & CREDITS :

   NOAA       Earth
Advisory